Time;durP1;ratioP1;P1;durP2;ratioP2;P2;SDS_P1;SDS_P2;PMS_P1;PMS_P2;Temp;Humidity;BMP_temperature;BMP_pressure;BME280_temperature;BME280_humidity;BME280_pressure;Samples;Min_cycle;Max_cycle;Signal;HPM_P1;HPM_P2
2021/05/02 00:00:38;;;;;;;18.40;6.00;;;14.10;99.90;;;;;;5035927;28;20052;-68
2021/05/02 00:03:43;;;;;;;20.85;5.65;;;14.00;99.90;;;;;;5049551;28;20040;-69
2021/05/02 00:06:48;;;;;;;21.42;5.82;;;14.00;99.90;;;;;;5048873;28;20407;-70
2021/05/02 00:09:53;;;;;;;24.92;6.93;;;14.00;99.90;;;;;;5047620;28;20543;-70
2021/05/02 00:13:01;;;;;;;18.95;6.13;;;13.90;99.90;;;;;;5046268;28;20654;-70
2021/05/02 00:16:06;;;;;;;29.20;6.65;;;13.90;99.90;;;;;;5048652;28;20044;-71
2021/05/02 00:19:11;;;;;;;16.58;5.15;;;13.80;99.90;;;;;;5046004;28;20094;-69
2021/05/02 00:22:20;;;;;;;18.70;5.28;;;13.80;99.90;;;;;;5047118;28;20055;-70
2021/05/02 00:25:27;;;;;;;18.20;5.25;;;13.90;99.90;;;;;;5039589;28;20048;-71
2021/05/02 00:28:34;;;;;;;20.60;4.50;;;13.90;99.90;;;;;;5037293;28;20044;-70
2021/05/02 00:31:42;;;;;;;16.30;3.90;;;13.90;99.90;;;;;;5043431;28;20507;-71
2021/05/02 00:34:46;;;;;;;11.88;3.85;;;13.90;99.90;;;;;;5048059;28;20123;-71
2021/05/02 00:37:52;;;;;;;11.57;3.88;;;13.90;99.90;;;;;;5042456;28;20047;-71
2021/05/02 00:40:59;;;;;;;13.95;3.58;;;13.90;99.90;;;;;;5047826;28;20047;-71
2021/05/02 00:44:09;;;;;;;12.82;3.60;;;13.90;99.90;;;;;;5038072;28;20048;-69
2021/05/02 00:47:14;;;;;;;14.82;3.72;;;13.90;99.90;;;;;;5037215;28;20048;-70
2021/05/02 00:50:27;;;;;;;15.13;4.00;;;13.80;99.90;;;;;;5049539;28;20048;-72
2021/05/02 00:53:55;;;;;;;15.75;3.58;;;13.90;99.90;;;;;;5048699;28;20040;-69
2021/05/02 00:57:14;;;;;;;18.05;3.58;;;13.90;99.90;;;;;;5028139;28;20053;-70
2021/05/02 01:00:20;;;;;;;14.25;3.20;;;14.00;99.90;;;;;;5029495;28;20052;-71
2021/05/02 01:03:25;;;;;;;13.30;3.15;;;14.00;99.90;;;;;;5030009;28;20529;-71
2021/05/02 01:06:31;;;;;;;18.52;3.53;;;14.00;99.90;;;;;;5031755;28;20040;-72
2021/05/02 01:09:35;;;;;;;12.68;3.60;;;13.80;99.90;;;;;;5052681;28;20060;-72
2021/05/02 01:12:45;;;;;;;19.15;3.15;;;13.90;99.90;;;;;;5037619;28;20076;-70
2021/05/02 01:15:52;;;;;;;21.52;3.33;;;13.80;99.90;;;;;;5032899;28;20495;-71
2021/05/02 01:18:57;;;;;;;15.30;2.83;;;13.90;99.90;;;;;;5034683;28;20052;-69
2021/05/02 01:22:02;;;;;;;14.65;3.80;;;13.90;99.90;;;;;;5053938;28;20495;-72
2021/05/02 01:25:07;;;;;;;16.08;3.08;;;13.90;99.90;;;;;;5050943;28;21375;-69
2021/05/02 01:28:12;;;;;;;18.65;3.40;;;13.90;99.90;;;;;;5034285;28;20060;-72
2021/05/02 01:31:16;;;;;;;17.05;2.90;;;13.90;99.90;;;;;;5049973;28;20051;-71
2021/05/02 01:34:20;;;;;;;12.93;3.35;;;13.90;99.90;;;;;;5048962;28;20044;-72
2021/05/02 01:37:24;;;;;;;15.73;3.65;;;13.80;99.90;;;;;;5033333;28;20056;-72
2021/05/02 01:40:28;;;;;;;14.68;3.85;;;13.80;99.90;;;;;;5033646;28;20049;-72
2021/05/02 01:43:32;;;;;;;23.23;4.43;;;13.80;99.90;;;;;;5046175;28;20060;-70
2021/05/02 01:46:40;;;;;;;18.42;3.63;;;13.70;99.90;;;;;;5052744;28;20047;-71
2021/05/02 01:50:04;;;;;;;20.20;3.65;;;13.70;99.90;;;;;;5054445;28;20047;-70
2021/05/02 01:53:14;;;;;;;21.92;3.42;;;13.60;99.90;;;;;;5052757;28;20055;-70
2021/05/02 01:56:21;;;;;;;10.90;2.08;;;13.50;99.90;;;;;;5044702;28;20045;-72
2021/05/02 01:59:26;;;;;;;20.08;2.75;;;13.50;99.90;;;;;;5032613;28;20052;-72
2021/05/02 02:02:31;;;;;;;13.98;2.78;;;13.30;99.90;;;;;;5033090;28;20037;-71
2021/05/02 02:05:37;;;;;;;10.93;2.42;;;13.20;99.90;;;;;;5032128;28;20503;-73
2021/05/02 02:08:42;;;;;;;9.60;2.55;;;13.20;99.90;;;;;;5032935;28;20396;-73
2021/05/02 02:11:47;;;;;;;17.00;2.40;;;13.10;99.90;;;;;;5033100;28;20503;-72
2021/05/02 02:14:53;;;;;;;14.93;2.60;;;12.90;99.90;;;;;;5046979;28;20052;-71
2021/05/02 02:18:00;;;;;;;12.65;2.17;;;12.90;99.90;;;;;;5052619;28;20048;-72
2021/05/02 02:21:08;;;;;;;16.80;2.63;;;12.80;99.90;;;;;;5053105;28;20415;-73
2021/05/02 02:24:13;;;;;;;11.43;2.35;;;12.70;99.90;;;;;;5052113;28;20526;-72
2021/05/02 02:27:20;;;;;;;25.17;2.70;;;12.50;99.90;;;;;;5051674;28;20052;-73
2021/05/02 02:30:26;;;;;;;20.50;2.33;;;12.50;99.90;;;;;;5052146;28;20048;-72
2021/05/02 02:33:33;;;;;;;35.13;4.72;;;12.30;99.90;;;;;;5031548;28;20125;-73
2021/05/02 02:36:40;;;;;;;11.02;2.33;;;12.20;99.90;;;;;;5038158;28;20051;-73
2021/05/02 02:39:58;;;;;;;23.70;2.67;;;12.10;99.90;;;;;;5052562;28;20052;-72
2021/05/02 02:43:04;;;;;;;14.75;3.20;;;12.00;99.90;;;;;;5052413;28;20048;-73
2021/05/02 02:46:17;;;;;;;23.75;4.32;;;12.10;99.90;;;;;;5049969;28;20048;-71
2021/05/02 02:49:22;;;;;;;21.17;2.67;;;12.00;99.90;;;;;;5052252;28;20392;-71
2021/05/02 02:52:28;;;;;;;20.70;2.33;;;11.90;99.90;;;;;;5052553;28;20056;-72
2021/05/02 02:55:37;;;;;;;15.32;4.15;;;11.90;99.90;;;;;;5050833;28;20044;-72
2021/05/02 02:59:08;;;;;;;19.30;3.83;;;11.90;99.90;;;;;;5035585;28;20045;-72
2021/05/02 03:02:17;;;;;;;15.15;2.95;;;11.80;99.90;;;;;;5035500;28;20438;-72
2021/05/02 03:05:24;;;;;;;22.23;2.70;;;11.80;99.90;;;;;;5031190;28;20044;-72
2021/05/02 03:08:30;;;;;;;22.92;3.50;;;11.80;99.90;;;;;;5039460;28;20503;-72
2021/05/02 03:11:35;;;;;;;19.48;3.38;;;11.70;99.90;;;;;;5031898;28;20406;-72
2021/05/02 03:14:39;;;;;;;21.58;3.13;;;11.70;99.90;;;;;;5031073;28;20052;-72
2021/05/02 03:17:53;;;;;;;15.18;2.55;;;11.90;99.90;;;;;;5051110;28;20112;-71
2021/05/02 03:21:09;;;;;;;18.45;3.30;;;11.90;99.90;;;;;;5046899;28;20068;-71
2021/05/02 03:24:17;;;;;;;16.33;2.55;;;12.00;99.90;;;;;;5051679;28;20036;-71
2021/05/02 03:27:27;;;;;;;14.48;2.05;;;12.00;99.90;;;;;;5050233;28;20059;-71
2021/05/02 03:30:32;;;;;;;16.90;2.63;;;12.10;99.90;;;;;;5043902;28;20053;-71
2021/05/02 03:33:40;;;;;;;11.95;2.95;;;12.00;99.90;;;;;;5036137;28;20515;-71
2021/05/02 03:37:06;;;;;;;14.13;2.42;;;12.10;99.90;;;;;;5047450;28;20040;-70
2021/05/02 03:40:11;;;;;;;20.80;2.60;;;12.10;99.90;;;;;;5048335;28;20545;-70
2021/05/02 03:43:15;;;;;;;22.80;3.03;;;12.20;99.90;;;;;;5051528;28;20063;-72
2021/05/02 03:46:25;;;;;;;20.42;2.05;;;12.10;99.90;;;;;;5049062;28;20043;-72
2021/05/02 03:49:30;;;;;;;15.65;2.30;;;12.20;99.90;;;;;;5050603;28;20056;-73
2021/05/02 03:52:34;;;;;;;17.55;3.10;;;12.20;99.90;;;;;;5050776;28;20085;-71
2021/05/02 03:55:44;;;;;;;14.50;2.85;;;12.10;99.90;;;;;;5029429;28;20044;-73
2021/05/02 03:58:48;;;;;;;10.32;2.05;;;12.20;99.90;;;;;;5043960;28;20044;-72
2021/05/02 04:02:01;;;;;;;17.30;2.72;;;12.20;99.90;;;;;;5043592;28;20678;-72
2021/05/02 04:05:06;;;;;;;22.55;2.38;;;12.10;99.90;;;;;;5051323;28;20503;-72
2021/05/02 04:08:10;;;;;;;15.35;2.15;;;12.10;99.90;;;;;;5049628;28;20049;-71
2021/05/02 04:11:15;;;;;;;19.90;2.50;;;12.20;99.90;;;;;;5030546;28;20048;-73
2021/05/02 04:14:19;;;;;;;10.77;2.05;;;12.20;99.90;;;;;;5040493;28;20052;-73
2021/05/02 04:17:23;;;;;;;17.08;2.28;;;12.20;99.90;;;;;;5030241;28;20053;-72
2021/05/02 04:20:27;;;;;;;10.07;1.70;;;12.30;99.90;;;;;;5029885;28;20052;-72
2021/05/02 04:23:34;;;;;;;11.80;1.83;;;12.30;99.90;;;;;;5044854;28;20115;-71
2021/05/02 04:26:42;;;;;;;10.85;1.95;;;12.20;99.90;;;;;;5050383;28;20048;-73
2021/05/02 04:29:46;;;;;;;18.42;2.25;;;12.30;99.90;;;;;;5049211;28;20059;-75
2021/05/02 04:32:50;;;;;;;15.20;2.30;;;12.20;99.90;;;;;;5044649;28;20163;-71
2021/05/02 04:35:54;;;;;;;15.00;2.17;;;12.20;99.90;;;;;;5030689;28;20052;-73
2021/05/02 04:38:59;;;;;;;15.90;2.17;;;12.30;99.90;;;;;;5048764;28;20055;-73
2021/05/02 04:42:05;;;;;;;11.30;2.38;;;12.40;99.90;;;;;;5050148;28;20578;-72
2021/05/02 04:45:10;;;;;;;15.18;2.13;;;12.50;99.90;;;;;;5049593;28;20060;-70
2021/05/02 04:48:14;;;;;;;10.25;2.20;;;12.60;99.90;;;;;;5034359;28;20048;-70
2021/05/02 04:51:19;;;;;;;15.00;2.50;;;12.70;99.90;;;;;;5039341;28;20449;-70
2021/05/02 04:54:24;;;;;;;11.65;1.88;;;12.90;99.90;;;;;;5051195;28;20048;-73
2021/05/02 04:57:31;;;;;;;15.40;2.15;;;12.90;99.90;;;;;;5048475;28;20067;-73
2021/05/02 05:00:36;;;;;;;11.30;2.53;;;12.80;99.90;;;;;;5042878;28;20048;-73
2021/05/02 05:03:41;;;;;;;14.27;2.42;;;12.70;99.90;;;;;;5050173;28;20403;-72
2021/05/02 05:06:46;;;;;;;16.65;2.30;;;12.80;99.90;;;;;;5042200;28;20037;-73
2021/05/02 05:09:50;;;;;;;17.15;2.13;;;12.90;99.90;;;;;;5029760;28;20049;-73
2021/05/02 05:12:54;;;;;;;20.33;3.35;;;12.90;99.90;;;;;;5042355;28;20060;-73
2021/05/02 05:16:00;;;;;;;11.82;2.55;;;13.00;99.90;;;;;;5029221;28;20053;-72
2021/05/02 05:19:04;;;;;;;11.25;2.05;;;12.90;99.90;;;;;;5046299;28;20387;-73
2021/05/02 05:22:08;;;;;;;12.55;2.22;;;12.90;99.90;;;;;;5050472;28;20060;-73
2021/05/02 05:25:12;;;;;;;9.55;1.73;;;12.90;99.90;;;;;;5028884;28;20049;-73
2021/05/02 05:28:17;;;;;;;11.18;1.80;;;13.10;99.90;;;;;;5030039;28;20040;-73
2021/05/02 05:31:21;;;;;;;14.63;2.53;;;13.20;99.90;;;;;;5032474;28;20060;-69
2021/05/02 05:34:25;;;;;;;10.30;1.77;;;13.20;99.90;;;;;;5027676;28;20052;-74
2021/05/02 05:37:29;;;;;;;12.48;2.10;;;13.50;99.90;;;;;;5025481;28;20048;-74
2021/05/02 05:40:33;;;;;;;17.08;2.30;;;13.70;99.90;;;;;;5031475;28;20040;-71
2021/05/02 05:43:37;;;;;;;13.52;2.20;;;13.80;99.90;;;;;;5029373;28;20116;-70
2021/05/02 05:46:42;;;;;;;7.93;1.50;;;13.80;99.90;;;;;;5027619;28;20040;-72
2021/05/02 05:49:46;;;;;;;12.50;2.10;;;13.70;99.90;;;;;;5037909;28;20044;-73
2021/05/02 05:52:51;;;;;;;10.93;1.92;;;13.50;99.90;;;;;;5029836;28;20403;-73
2021/05/02 05:55:57;;;;;;;8.77;2.03;;;13.70;99.90;;;;;;5035563;28;20392;-73
2021/05/02 05:59:02;;;;;;;18.55;2.10;;;14.30;99.90;;;;;;5031404;28;20049;-74
2021/05/02 06:02:06;;;;;;;11.60;1.70;;;14.50;99.90;;;;;;5030582;28;20052;-74
2021/05/02 06:05:11;;;;;;;10.65;1.98;;;16.00;99.90;;;;;;5031041;28;20052;-74
2021/05/02 06:08:15;;;;;;;12.75;2.15;;;16.90;99.90;;;;;;5021711;28;20518;-74
2021/05/02 06:11:22;;;;;;;8.70;2.03;;;19.00;99.90;;;;;;5001548;28;20049;-74
2021/05/02 06:14:26;;;;;;;8.93;1.95;;;20.80;99.90;;;;;;4997823;28;20479;-74
2021/05/02 06:17:30;;;;;;;13.35;2.05;;;21.30;99.90;;;;;;5019700;28;20605;-74
2021/05/02 06:20:34;;;;;;;9.18;2.05;;;21.10;99.90;;;;;;5020988;28;20048;-73
2021/05/02 06:23:38;;;;;;;7.57;2.25;;;21.50;99.90;;;;;;5020949;28;20388;-74
2021/05/02 06:26:42;;;;;;;10.25;1.88;;;21.50;99.90;;;;;;5022287;28;20060;-75
2021/05/02 06:29:47;;;;;;;11.50;3.03;;;21.70;99.90;;;;;;5017079;28;20040;-74
2021/05/02 06:32:52;;;;;;;16.88;2.15;;;21.90;99.90;;;;;;5016833;28;20052;-75
2021/05/02 06:35:57;;;;;;;12.85;2.00;;;20.10;99.90;;;;;;5023054;28;20507;-73
2021/05/02 06:39:02;;;;;;;12.23;2.53;;;20.40;99.90;;;;;;5021265;28;20056;-73
2021/05/02 06:42:07;;;;;;;9.27;2.10;;;18.80;99.90;;;;;;5014096;28;20064;-73
2021/05/02 06:45:12;;;;;;;8.05;1.65;;;19.60;99.90;;;;;;5030137;28;20068;-74
2021/05/02 06:48:17;;;;;;;11.07;2.10;;;20.80;99.90;;;;;;5027189;28;20550;-74
2021/05/02 06:51:22;;;;;;;9.65;1.40;;;21.80;99.90;;;;;;5028711;28;20399;-75
2021/05/02 06:54:27;;;;;;;8.98;1.80;;;23.00;99.90;;;;;;5028187;28;20047;-74
2021/05/02 06:57:32;;;;;;;9.15;2.53;;;23.40;99.90;;;;;;5026580;28;20056;-74
2021/05/02 07:00:38;;;;;;;8.20;1.65;;;23.60;99.90;;;;;;5031765;28;20056;-73
2021/05/02 07:03:42;;;;;;;10.88;1.75;;;25.10;98.20;;;;;;5028735;28;20044;-74
2021/05/02 07:06:46;;;;;;;9.45;2.08;;;25.20;96.80;;;;;;5027658;28;20530;-73
2021/05/02 07:09:50;;;;;;;6.53;1.80;;;24.80;96.80;;;;;;5027430;28;20048;-74
2021/05/02 07:12:55;;;;;;;14.02;1.90;;;24.50;96.50;;;;;;5021258;28;20043;-74
2021/05/02 07:16:00;;;;;;;6.00;2.00;;;24.70;96.80;;;;;;5035093;28;20052;-73
2021/05/02 07:19:05;;;;;;;8.85;2.20;;;23.70;95.20;;;;;;5026427;28;20052;-72
2021/05/02 07:22:09;;;;;;;10.20;1.90;;;21.30;99.40;;;;;;5029491;28;20068;-74
2021/05/02 07:25:13;;;;;;;10.02;2.30;;;20.70;99.80;;;;;;5031913;28;20048;-70
2021/05/02 07:28:17;;;;;;;8.63;1.80;;;18.90;99.90;;;;;;5023175;28;20735;-74
2021/05/02 07:31:22;;;;;;;11.00;2.45;;;17.10;99.90;;;;;;5031417;28;20048;-72
2021/05/02 07:34:26;;;;;;;6.60;2.03;;;16.80;99.90;;;;;;5027424;28;20048;-74
2021/05/02 07:37:30;;;;;;;8.48;1.92;;;17.70;99.90;;;;;;5036726;28;20380;-73
2021/05/02 07:40:35;;;;;;;12.55;2.58;;;19.40;99.90;;;;;;5027943;28;20392;-74
2021/05/02 07:43:40;;;;;;;10.43;1.65;;;19.30;99.90;;;;;;5028670;28;20872;-73
2021/05/02 07:46:44;;;;;;;9.23;2.10;;;20.80;99.90;;;;;;5033549;28;20053;-74
2021/05/02 07:49:50;;;;;;;8.82;2.42;;;20.50;99.90;;;;;;5038369;28;20048;-73
2021/05/02 07:52:54;;;;;;;8.68;2.38;;;21.30;99.90;;;;;;5031944;28;20475;-74
2021/05/02 07:55:58;;;;;;;3.97;1.25;;;22.30;99.90;;;;;;5033587;28;20048;-74
2021/05/02 07:59:03;;;;;;;11.57;1.88;;;21.50;98.40;;;;;;5025441;28;20668;-73
2021/05/02 08:02:08;;;;;;;9.20;1.60;;;20.40;99.60;;;;;;5004582;28;20064;-73
2021/05/02 08:05:15;;;;;;;8.80;1.85;;;19.70;99.90;;;;;;5022813;28;20156;-75
2021/05/02 08:08:21;;;;;;;5.85;1.60;;;19.80;99.90;;;;;;5024386;28;20044;-75
2021/05/02 08:11:26;;;;;;;6.00;1.80;;;20.00;99.90;;;;;;5006925;28;20065;-74
2021/05/02 08:14:30;;;;;;;6.85;1.50;;;21.10;99.90;;;;;;5019815;28;20067;-75
2021/05/02 08:17:36;;;;;;;7.43;1.65;;;20.60;99.90;;;;;;5019805;28;20052;-74
2021/05/02 08:20:41;;;;;;;7.15;2.30;;;20.90;99.90;;;;;;5012695;28;20041;-75
2021/05/02 08:23:46;;;;;;;10.68;2.20;;;21.00;99.90;;;;;;5026090;28;20052;-74
2021/05/02 08:26:50;;;;;;;8.25;1.50;;;21.60;99.90;;;;;;5024374;28;20056;-73
2021/05/02 08:29:54;;;;;;;6.07;1.67;;;22.10;98.20;;;;;;5017483;28;21371;-73
2021/05/02 08:32:58;;;;;;;9.20;1.30;;;21.20;98.30;;;;;;5028679;28;20047;-75
2021/05/02 08:36:02;;;;;;;9.38;1.70;;;19.80;99.80;;;;;;5027519;28;20490;-73
2021/05/02 08:39:06;;;;;;;10.93;1.80;;;20.00;99.90;;;;;;5023813;28;20032;-74
2021/05/02 08:42:10;;;;;;;6.80;1.88;;;21.00;99.90;;;;;;5026918;28;20056;-74
2021/05/02 08:45:15;;;;;;;12.73;1.67;;;21.80;96.90;;;;;;5026771;28;20053;-73
2021/05/02 08:48:24;;;;;;;9.40;1.63;;;23.80;96.30;;;;;;5023892;28;20048;-70
2021/05/02 08:51:30;;;;;;;6.65;1.45;;;21.20;98.40;;;;;;5021517;28;20052;-73
2021/05/02 08:54:34;;;;;;;11.70;1.90;;;20.40;97.40;;;;;;5026070;28;20396;-67
2021/05/02 08:57:39;;;;;;;6.70;1.27;;;19.90;97.60;;;;;;5027554;28;20056;-70
2021/05/02 09:00:44;;;;;;;5.78;1.50;;;20.10;97.60;;;;;;5018948;28;20056;-70
2021/05/02 09:03:50;;;;;;;7.72;1.40;;;20.40;97.00;;;;;;5030120;28;20040;-69
2021/05/02 09:06:55;;;;;;;6.93;1.48;;;20.10;96.40;;;;;;5021268;28;20045;-69
2021/05/02 09:10:00;;;;;;;6.40;1.65;;;22.90;96.20;;;;;;5016642;28;20052;-71
2021/05/02 09:13:12;;;;;;;8.82;1.25;;;25.00;94.70;;;;;;5030557;28;20048;-71
2021/05/02 09:16:18;;;;;;;6.45;1.42;;;24.40;93.40;;;;;;5028101;28;20048;-69
2021/05/02 09:19:24;;;;;;;5.15;1.48;;;24.30;93.70;;;;;;5030208;28;20048;-67
2021/05/02 09:22:29;;;;;;;7.65;1.42;;;26.50;91.00;;;;;;5021252;28;20040;-67
2021/05/02 09:26:06;;;;;;;3.35;1.05;;;28.20;88.70;;;;;;5022969;28;20036;-70
2021/05/02 09:29:10;;;;;;;7.65;1.35;;;29.50;82.80;;;;;;5018854;28;20499;-71
2021/05/02 09:32:22;;;;;;;4.68;1.27;;;29.90;78.70;;;;;;5025961;28;20052;-70
2021/05/02 09:35:32;;;;;;;5.32;1.10;;;30.00;78.80;;;;;;5025554;28;20052;-69
2021/05/02 09:38:39;;;;;;;4.43;1.13;;;30.40;78.10;;;;;;5028588;28;20041;-70
2021/05/02 09:41:43;;;;;;;5.45;1.70;;;29.30;75.00;;;;;;5018321;28;20056;-70
2021/05/02 09:44:57;;;;;;;3.03;0.88;;;27.30;71.90;;;;;;5023420;28;20048;-72
2021/05/02 09:48:02;;;;;;;5.57;1.15;;;27.90;76.60;;;;;;5027685;28;20044;-71
2021/05/02 09:51:13;;;;;;;4.97;1.20;;;28.80;71.80;;;;;;5017430;28;20044;-70
2021/05/02 09:54:19;;;;;;;3.97;1.48;;;24.80;76.10;;;;;;5025202;28;20052;-68
2021/05/02 09:57:23;;;;;;;4.63;1.10;;;23.10;71.90;;;;;;5024473;28;20048;-71
2021/05/02 10:00:50;;;;;;;4.40;1.30;;;26.20;75.30;;;;;;5018625;28;20064;-73
2021/05/02 10:03:56;;;;;;;6.18;1.27;;;22.80;79.20;;;;;;5032082;28;20052;-69
2021/05/02 10:07:09;;;;;;;5.13;1.00;;;21.90;75.60;;;;;;5022791;28;20056;-70
2021/05/02 10:10:14;;;;;;;5.43;1.30;;;20.70;78.30;;;;;;5017222;28;20052;-70
2021/05/02 10:13:18;;;;;;;5.18;1.58;;;20.90;78.90;;;;;;5030889;28;21348;-74
2021/05/02 10:16:23;;;;;;;4.90;1.48;;;21.80;79.50;;;;;;5027095;28;20412;-71
2021/05/02 10:19:32;;;;;;;7.45;1.20;;;21.40;74.00;;;;;;5021831;28;20044;-67
2021/05/02 10:22:36;;;;;;;7.93;1.50;;;20.20;78.10;;;;;;5024673;28;20395;-68
2021/05/02 10:25:42;;;;;;;8.75;1.83;;;20.90;86.90;;;;;;5022959;28;20033;-70
2021/05/02 10:28:47;;;;;;;5.45;1.33;;;21.90;83.20;;;;;;5025599;28;20072;-72
2021/05/02 10:32:00;;;;;;;3.33;1.65;;;23.60;82.00;;;;;;5022843;28;20072;-69
2021/05/02 10:35:08;;;;;;;5.97;1.45;;;24.80;76.90;;;;;;5028044;28;20044;-67
2021/05/02 10:38:18;;;;;;;4.57;0.98;;;26.00;74.90;;;;;;5028258;28;20056;-68
2021/05/02 10:41:32;;;;;;;15.10;1.60;;;26.90;73.40;;;;;;5023297;28;20498;-69
2021/05/02 10:44:36;;;;;;;5.93;1.10;;;27.60;73.90;;;;;;5027701;28;20052;-68
2021/05/02 10:47:43;;;;;;;5.68;1.10;;;27.70;70.80;;;;;;5034313;28;20056;-72
2021/05/02 10:50:54;;;;;;;4.35;1.33;;;25.60;66.40;;;;;;5016328;28;20060;-68
2021/05/02 10:54:10;;;;;;;10.43;1.63;;;23.40;73.90;;;;;;5032865;28;20422;-69
2021/05/02 10:57:36;;;;;;;5.63;1.38;;;23.60;79.40;;;;;;5038865;28;20052;-69
2021/05/02 11:01:02;;;;;;;5.63;1.25;;;26.70;75.30;;;;;;5009789;28;20072;-70
2021/05/02 11:04:07;;;;;;;11.45;1.67;;;29.80;74.50;;;;;;5017669;28;20057;-70
2021/05/02 11:07:36;;;;;;;5.65;1.50;;;30.10;69.20;;;;;;5027430;28;20049;-68
2021/05/02 11:10:58;;;;;;;9.40;1.73;;;29.40;69.90;;;;;;5009587;28;20040;-71
2021/05/02 11:17:16;;;;;;;5.53;1.17;;;27.30;66.40;;;;;;5025835;28;20055;-68
2021/05/02 11:20:51;;;;;;;9.60;1.45;;;22.40;70.70;;;;;;5026104;28;20708;-66
2021/05/02 11:23:56;;;;;;;5.00;1.30;;;20.40;71.70;;;;;;5027620;28;20045;-69
2021/05/02 11:30:14;;;;;;;4.07;1.10;;;19.30;77.50;;;;;;5013652;28;20403;-69
2021/05/02 11:33:24;;;;;;;9.73;1.63;;;20.30;75.80;;;;;;5040101;28;20116;-69
2021/05/02 11:36:43;;;;;;;6.78;1.00;;;19.80;75.30;;;;;;5027500;28;20049;-69
2021/05/02 11:39:47;;;;;;;7.53;0.93;;;22.50;76.10;;;;;;5038068;28;20636;-68
2021/05/02 11:43:02;;;;;;;6.20;1.13;;;23.30;70.30;;;;;;5041145;28;20044;-72
2021/05/02 11:46:16;;;;;;;12.60;1.40;;;24.50;70.60;;;;;;5043916;28;20033;-69
2021/05/02 11:49:21;;;;;;;9.32;1.20;;;25.80;69.40;;;;;;5041209;28;20048;-69
2021/05/02 11:52:26;;;;;;;6.10;1.33;;;22.70;69.70;;;;;;5039298;28;20099;-68
2021/05/02 11:55:37;;;;;;;4.70;1.10;;;22.60;72.80;;;;;;5040152;28;20622;-69
2021/05/02 11:58:41;;;;;;;6.13;1.33;;;22.10;72.70;;;;;;5028944;28;20591;-69
2021/05/02 12:01:47;;;;;;;4.72;1.17;;;21.30;76.00;;;;;;5029323;28;20056;-69
2021/05/02 12:04:54;;;;;;;4.18;0.90;;;21.60;74.00;;;;;;5042201;28;20084;-68
2021/05/02 12:08:12;;;;;;;5.53;1.20;;;21.20;72.40;;;;;;5035147;28;20064;-68
2021/05/02 12:11:17;;;;;;;4.97;1.25;;;21.20;70.60;;;;;;5033226;28;20043;-68
2021/05/02 12:14:24;;;;;;;2.83;0.80;;;22.10;70.50;;;;;;5038565;28;20044;-68
2021/05/02 12:17:29;;;;;;;3.45;0.95;;;22.20;70.50;;;;;;5030721;28;20071;-68
2021/05/02 12:21:27;;;;;;;4.43;1.17;;;21.90;71.10;;;;;;5034370;28;20039;-67
2021/05/02 12:24:33;;;;;;;5.00;0.90;;;21.80;69.10;;;;;;5024261;28;20040;-67
2021/05/02 12:27:37;;;;;;;3.42;1.02;;;22.10;71.30;;;;;;5031642;28;20048;-68
2021/05/02 12:30:43;;;;;;;3.80;1.15;;;22.50;69.70;;;;;;5028676;28;20045;-68
2021/05/02 12:33:47;;;;;;;7.07;1.77;;;20.90;71.80;;;;;;5029773;28;20049;-65
2021/05/02 12:36:53;;;;;;;2.97;0.88;;;22.30;71.60;;;;;;5028832;28;20478;-64
2021/05/02 12:40:06;;;;;;;10.05;1.63;;;22.70;68.40;;;;;;5039261;28;20043;-67
2021/05/02 12:43:28;;;;;;;6.68;1.40;;;23.10;67.90;;;;;;5041377;28;20052;-67
2021/05/02 12:46:42;;;;;;;3.72;1.20;;;21.90;72.00;;;;;;5038486;28;20507;-68
2021/05/02 12:50:07;;;;;;;8.45;1.05;;;23.40;69.90;;;;;;5039746;28;20487;-64
2021/05/02 12:53:11;;;;;;;5.80;1.23;;;23.70;65.60;;;;;;5045605;28;20052;-66
2021/05/02 12:56:22;;;;;;;4.38;1.10;;;22.40;65.90;;;;;;5043787;28;20048;-67
2021/05/02 12:59:39;;;;;;;3.27;1.00;;;20.80;69.00;;;;;;5035751;28;20052;-70
2021/05/02 13:02:47;;;;;;;2.67;0.90;;;20.20;69.90;;;;;;5036355;28;20044;-66
2021/05/02 13:06:14;;;;;;;5.22;1.10;;;20.70;68.80;;;;;;5050969;28;20564;-70
2021/05/02 13:09:18;;;;;;;4.43;1.00;;;20.70;72.50;;;;;;5047324;28;20049;-67
2021/05/02 13:12:23;;;;;;;15.52;1.52;;;19.90;70.00;;;;;;5045226;28;20056;-68
2021/05/02 13:15:41;;;;;;;7.38;1.70;;;19.00;70.80;;;;;;5039962;28;20047;-68
2021/05/02 13:18:46;;;;;;;4.50;1.30;;;19.80;72.40;;;;;;5036276;28;20064;-68
2021/05/02 13:21:50;;;;;;;4.68;1.10;;;20.10;73.10;;;;;;5041281;28;20041;-67
2021/05/02 13:24:58;;;;;;;5.20;1.23;;;21.20;70.60;;;;;;5042674;28;20480;-68
2021/05/02 13:28:08;;;;;;;5.55;1.30;;;21.10;69.20;;;;;;5047950;28;20059;-68
2021/05/02 13:31:17;;;;;;;4.65;1.00;;;21.10;70.30;;;;;;5034306;28;20052;-66
2021/05/02 13:34:29;;;;;;;3.00;1.08;;;21.00;66.70;;;;;;5035782;28;20550;-68
2021/05/02 13:37:34;;;;;;;5.47;1.23;;;20.40;71.30;;;;;;5040408;28;20048;-66
2021/05/02 13:40:39;;;;;;;5.18;1.63;;;19.70;66.70;;;;;;5038592;28;20048;-68
2021/05/02 13:43:43;;;;;;;6.25;1.30;;;19.40;70.00;;;;;;5044557;28;20384;-69
2021/05/02 13:46:49;;;;;;;2.58;0.95;;;19.00;69.30;;;;;;5049848;28;20044;-67
2021/05/02 13:49:55;;;;;;;4.47;1.13;;;18.90;69.70;;;;;;5045267;28;20036;-65
2021/05/02 13:52:59;;;;;;;11.77;1.30;;;18.70;69.50;;;;;;5047817;28;20037;-69
2021/05/02 13:56:04;;;;;;;4.38;1.00;;;18.90;70.10;;;;;;5051767;28;20052;-69
2021/05/02 13:59:08;;;;;;;5.22;1.15;;;18.60;71.10;;;;;;5042491;28;20052;-69
2021/05/02 14:02:15;;;;;;;2.78;0.95;;;18.10;72.20;;;;;;5052169;28;20051;-67
2021/05/02 14:05:21;;;;;;;3.78;1.10;;;18.40;69.50;;;;;;5049365;28;20060;-70
2021/05/02 14:08:25;;;;;;;5.25;1.40;;;18.90;72.30;;;;;;5039864;28;20406;-72
2021/05/02 14:11:29;;;;;;;3.17;0.90;;;19.00;69.30;;;;;;5035654;28;20561;-69
2021/05/02 14:14:34;;;;;;;2.92;0.90;;;18.80;73.80;;;;;;5033582;28;20040;-68
2021/05/02 14:17:39;;;;;;;6.28;1.10;;;19.40;75.40;;;;;;5034303;28;20048;-69
2021/05/02 14:20:44;;;;;;;2.65;1.00;;;19.80;69.40;;;;;;5032191;28;20048;-69
2021/05/02 14:23:50;;;;;;;1.92;1.05;;;19.60;68.90;;;;;;5033191;28;20044;-68
2021/05/02 14:26:55;;;;;;;2.85;0.70;;;19.70;68.00;;;;;;5033208;28;20048;-67
2021/05/02 14:30:00;;;;;;;4.35;1.25;;;19.10;65.70;;;;;;5034341;28;20155;-68
2021/05/02 14:33:04;;;;;;;4.05;0.90;;;18.50;65.10;;;;;;5035316;28;20075;-69
2021/05/02 14:36:09;;;;;;;5.47;1.30;;;18.40;68.70;;;;;;5035834;28;20052;-70
2021/05/02 14:39:12;;;;;;;1.98;0.88;;;17.90;65.70;;;;;;5033186;28;20412;-69
2021/05/02 14:42:17;;;;;;;2.17;0.82;;;18.40;68.90;;;;;;5032974;28;20048;-69
2021/05/02 14:45:22;;;;;;;5.10;1.00;;;18.50;67.50;;;;;;5033221;28;20045;-68
2021/05/02 14:48:26;;;;;;;5.45;1.02;;;18.10;65.70;;;;;;5030687;28;20061;-72
2021/05/02 14:51:30;;;;;;;10.18;1.30;;;17.80;70.00;;;;;;5031868;28;20045;-67
2021/05/02 14:54:34;;;;;;;4.75;0.82;;;18.40;70.00;;;;;;5038628;28;20487;-70
2021/05/02 14:57:41;;;;;;;7.85;1.30;;;18.80;68.60;;;;;;5036121;28;20044;-65
2021/05/02 15:00:45;;;;;;;4.68;1.02;;;18.80;66.80;;;;;;5031262;28;20041;-68
2021/05/02 15:03:49;;;;;;;3.30;1.10;;;18.20;66.90;;;;;;5036809;28;20515;-69
2021/05/02 15:06:54;;;;;;;8.32;1.17;;;18.60;68.20;;;;;;5034819;28;20040;-68
2021/05/02 15:09:59;;;;;;;3.67;0.98;;;17.80;66.80;;;;;;5032230;28;20052;-69
2021/05/02 15:13:03;;;;;;;4.60;1.10;;;18.10;68.80;;;;;;5031249;28;20400;-67
2021/05/02 15:16:07;;;;;;;4.50;1.00;;;18.00;68.80;;;;;;5033238;28;20040;-69
2021/05/02 15:19:13;;;;;;;3.83;1.25;;;18.10;69.00;;;;;;5033654;28;20055;-69
2021/05/02 15:22:17;;;;;;;6.47;1.25;;;17.70;69.40;;;;;;5034385;28;20052;-67
2021/05/02 15:25:21;;;;;;;6.95;1.33;;;18.00;67.50;;;;;;5034879;28;20040;-71
2021/05/02 15:28:25;;;;;;;6.13;1.20;;;18.00;70.00;;;;;;5027748;28;20045;-69
2021/05/02 15:31:30;;;;;;;11.02;1.20;;;18.10;68.30;;;;;;5027404;28;20049;-68
2021/05/02 15:34:34;;;;;;;4.55;1.20;;;18.00;67.50;;;;;;5034381;28;20044;-70
2021/05/02 15:37:38;;;;;;;9.40;1.30;;;17.90;70.40;;;;;;5031266;28;20043;-68
2021/05/02 15:40:43;;;;;;;3.30;1.10;;;17.90;71.30;;;;;;5031202;28;20044;-67
2021/05/02 15:43:52;;;;;;;2.70;1.00;;;17.50;64.40;;;;;;5031848;28;20423;-68
2021/05/02 15:46:56;;;;;;;6.53;1.35;;;17.50;69.00;;;;;;5039536;28;20040;-67
2021/05/02 15:50:00;;;;;;;5.80;1.27;;;17.70;71.90;;;;;;5030459;28;20040;-66
2021/05/02 15:53:06;;;;;;;5.80;1.10;;;17.80;67.90;;;;;;5033090;28;20068;-69
2021/05/02 15:56:10;;;;;;;3.92;1.35;;;17.90;68.90;;;;;;5031000;28;20396;-68
2021/05/02 15:59:15;;;;;;;4.88;1.17;;;18.00;70.30;;;;;;5033803;28;20052;-69
2021/05/02 16:02:22;;;;;;;7.22;2.13;;;17.70;70.10;;;;;;5029671;28;20052;-66
2021/05/02 16:05:30;;;;;;;3.58;1.13;;;17.70;70.40;;;;;;5030405;28;20040;-67
2021/05/02 16:08:34;;;;;;;1.92;1.10;;;17.40;69.20;;;;;;5043544;28;20518;-68
2021/05/02 16:11:39;;;;;;;4.53;1.00;;;17.20;65.20;;;;;;5041145;28;20599;-68
2021/05/02 16:14:43;;;;;;;5.50;1.40;;;16.80;67.60;;;;;;5035495;28;20589;-68